sensor_id;sensor_type;location;lat;lon;timestamp;P1;durP1;ratioP1;P2;durP2;ratioP2
55455;SDS011;63021;52.836;6.376;2024-02-21T00:00:02;16.45;;;5.57;;
55455;SDS011;63021;52.836;6.376;2024-02-21T00:02:27;21.63;;;5.88;;
55455;SDS011;63021;52.836;6.376;2024-02-21T00:04:53;26.52;;;7.57;;
55455;SDS011;63021;52.836;6.376;2024-02-21T00:07:18;25.23;;;7.72;;
55455;SDS011;63021;52.836;6.376;2024-02-21T00:09:44;24.60;;;10.85;;
55455;SDS011;63021;52.836;6.376;2024-02-21T00:12:09;19.20;;;8.40;;
55455;SDS011;63021;52.836;6.376;2024-02-21T00:14:34;24.35;;;9.20;;
55455;SDS011;63021;52.836;6.376;2024-02-21T00:17:00;20.17;;;9.75;;
55455;SDS011;63021;52.836;6.376;2024-02-21T00:19:28;21.50;;;10.27;;
55455;SDS011;63021;52.836;6.376;2024-02-21T00:21:54;19.08;;;8.77;;
55455;SDS011;63021;52.836;6.376;2024-02-21T00:24:19;21.45;;;10.45;;
55455;SDS011;63021;52.836;6.376;2024-02-21T00:26:44;22.35;;;9.25;;
55455;SDS011;63021;52.836;6.376;2024-02-21T00:29:10;17.00;;;9.65;;
55455;SDS011;63021;52.836;6.376;2024-02-21T00:31:35;24.50;;;10.00;;
55455;SDS011;63021;52.836;6.376;2024-02-21T00:34:01;23.85;;;9.80;;
55455;SDS011;63021;52.836;6.376;2024-02-21T00:36:26;20.20;;;9.23;;
55455;SDS011;63021;52.836;6.376;2024-02-21T00:38:51;20.27;;;9.45;;
55455;SDS011;63021;52.836;6.376;2024-02-21T00:41:17;27.48;;;9.77;;
55455;SDS011;63021;52.836;6.376;2024-02-21T00:43:43;25.30;;;8.95;;
55455;SDS011;63021;52.836;6.376;2024-02-21T00:46:08;27.08;;;8.98;;
55455;SDS011;63021;52.836;6.376;2024-02-21T00:48:33;27.42;;;10.57;;
55455;SDS011;63021;52.836;6.376;2024-02-21T00:50:59;28.48;;;9.20;;
55455;SDS011;63021;52.836;6.376;2024-02-21T00:53:24;23.60;;;9.10;;
55455;SDS011;63021;52.836;6.376;2024-02-21T00:55:50;24.25;;;9.20;;
55455;SDS011;63021;52.836;6.376;2024-02-21T00:58:15;24.10;;;8.70;;
55455;SDS011;63021;52.836;6.376;2024-02-21T01:00:40;21.02;;;9.40;;
55455;SDS011;63021;52.836;6.376;2024-02-21T01:03:06;26.77;;;9.05;;
55455;SDS011;63021;52.836;6.376;2024-02-21T01:05:31;25.38;;;11.32;;
55455;SDS011;63021;52.836;6.376;2024-02-21T01:07:57;33.20;;;11.93;;
55455;SDS011;63021;52.836;6.376;2024-02-21T01:10:22;29.95;;;9.77;;
55455;SDS011;63021;52.836;6.376;2024-02-21T01:12:47;28.73;;;9.68;;
55455;SDS011;63021;52.836;6.376;2024-02-21T01:15:13;27.92;;;10.63;;
55455;SDS011;63021;52.836;6.376;2024-02-21T01:17:38;20.88;;;8.45;;
55455;SDS011;63021;52.836;6.376;2024-02-21T01:20:05;31.20;;;10.00;;
55455;SDS011;63021;52.836;6.376;2024-02-21T01:22:31;23.05;;;8.23;;
55455;SDS011;63021;52.836;6.376;2024-02-21T01:24:57;19.92;;;9.52;;
55455;SDS011;63021;52.836;6.376;2024-02-21T01:27:22;19.83;;;7.63;;
55455;SDS011;63021;52.836;6.376;2024-02-21T01:29:48;21.55;;;7.65;;
55455;SDS011;63021;52.836;6.376;2024-02-21T01:32:14;19.27;;;7.97;;
55455;SDS011;63021;52.836;6.376;2024-02-21T01:34:40;23.23;;;7.72;;
55455;SDS011;63021;52.836;6.376;2024-02-21T01:37:06;18.17;;;7.57;;
55455;SDS011;63021;52.836;6.376;2024-02-21T01:39:32;23.13;;;6.82;;
55455;SDS011;63021;52.836;6.376;2024-02-21T01:41:58;26.88;;;7.63;;
55455;SDS011;63021;52.836;6.376;2024-02-21T01:44:24;16.73;;;7.03;;
55455;SDS011;63021;52.836;6.376;2024-02-21T01:46:49;21.48;;;7.43;;
55455;SDS011;63021;52.836;6.376;2024-02-21T01:49:16;23.38;;;6.85;;
55455;SDS011;63021;52.836;6.376;2024-02-21T01:51:42;19.75;;;6.50;;
55455;SDS011;63021;52.836;6.376;2024-02-21T01:54:07;25.70;;;7.63;;
55455;SDS011;63021;52.836;6.376;2024-02-21T01:56:35;48.58;;;8.68;;
55455;SDS011;63021;52.836;6.376;2024-02-21T01:59:00;22.02;;;7.78;;
55455;SDS011;63021;52.836;6.376;2024-02-21T02:01:26;27.50;;;7.40;;
55455;SDS011;63021;52.836;6.376;2024-02-21T02:03:51;22.33;;;8.75;;
55455;SDS011;63021;52.836;6.376;2024-02-21T02:06:18;30.83;;;8.95;;
55455;SDS011;63021;52.836;6.376;2024-02-21T02:08:43;23.45;;;7.53;;
55455;SDS011;63021;52.836;6.376;2024-02-21T02:11:09;26.73;;;8.43;;
55455;SDS011;63021;52.836;6.376;2024-02-21T02:13:35;23.67;;;8.63;;
55455;SDS011;63021;52.836;6.376;2024-02-21T02:16:01;26.25;;;7.90;;
55455;SDS011;63021;52.836;6.376;2024-02-21T02:18:26;37.45;;;10.45;;
55455;SDS011;63021;52.836;6.376;2024-02-21T02:20:52;27.42;;;9.30;;
55455;SDS011;63021;52.836;6.376;2024-02-21T02:25:59;31.83;;;8.50;;
55455;SDS011;63021;52.836;6.376;2024-02-21T02:28:26;25.92;;;6.93;;
55455;SDS011;63021;52.836;6.376;2024-02-21T02:30:51;17.42;;;6.85;;
55455;SDS011;63021;52.836;6.376;2024-02-21T02:33:17;28.75;;;8.45;;
55455;SDS011;63021;52.836;6.376;2024-02-21T02:35:43;31.52;;;7.55;;
55455;SDS011;63021;52.836;6.376;2024-02-21T02:38:08;24.92;;;7.35;;
55455;SDS011;63021;52.836;6.376;2024-02-21T02:40:34;21.98;;;7.63;;
55455;SDS011;63021;52.836;6.376;2024-02-21T02:43:00;21.25;;;7.35;;
55455;SDS011;63021;52.836;6.376;2024-02-21T02:45:26;18.48;;;6.13;;
55455;SDS011;63021;52.836;6.376;2024-02-21T02:47:52;20.35;;;6.57;;
55455;SDS011;63021;52.836;6.376;2024-02-21T02:50:24;28.55;;;7.07;;
55455;SDS011;63021;52.836;6.376;2024-02-21T02:52:51;27.02;;;8.18;;
55455;SDS011;63021;52.836;6.376;2024-02-21T02:55:17;35.75;;;9.77;;
55455;SDS011;63021;52.836;6.376;2024-02-21T02:57:43;27.67;;;7.28;;
55455;SDS011;63021;52.836;6.376;2024-02-21T03:00:08;24.83;;;6.82;;
55455;SDS011;63021;52.836;6.376;2024-02-21T03:02:37;27.10;;;6.45;;
55455;SDS011;63021;52.836;6.376;2024-02-21T03:05:11;21.88;;;5.78;;
55455;SDS011;63021;52.836;6.376;2024-02-21T03:07:40;27.48;;;6.70;;
55455;SDS011;63021;52.836;6.376;2024-02-21T03:10:07;26.10;;;5.55;;
55455;SDS011;63021;52.836;6.376;2024-02-21T03:12:32;31.70;;;6.97;;
55455;SDS011;63021;52.836;6.376;2024-02-21T03:14:58;29.67;;;5.30;;
55455;SDS011;63021;52.836;6.376;2024-02-21T03:17:24;25.40;;;5.78;;
55455;SDS011;63021;52.836;6.376;2024-02-21T03:19:52;23.83;;;5.93;;
55455;SDS011;63021;52.836;6.376;2024-02-21T03:22:17;25.83;;;5.20;;
55455;SDS011;63021;52.836;6.376;2024-02-21T03:24:43;20.98;;;4.90;;
55455;SDS011;63021;52.836;6.376;2024-02-21T03:27:08;33.28;;;5.97;;
55455;SDS011;63021;52.836;6.376;2024-02-21T03:29:34;27.73;;;4.88;;
55455;SDS011;63021;52.836;6.376;2024-02-21T03:31:59;25.30;;;5.50;;
55455;SDS011;63021;52.836;6.376;2024-02-21T03:34:28;29.88;;;6.25;;
55455;SDS011;63021;52.836;6.376;2024-02-21T03:36:53;22.52;;;5.68;;
55455;SDS011;63021;52.836;6.376;2024-02-21T03:39:18;25.65;;;4.93;;
55455;SDS011;63021;52.836;6.376;2024-02-21T03:41:44;22.92;;;5.90;;
55455;SDS011;63021;52.836;6.376;2024-02-21T03:44:09;29.45;;;5.93;;
55455;SDS011;63021;52.836;6.376;2024-02-21T03:46:34;32.40;;;6.63;;
55455;SDS011;63021;52.836;6.376;2024-02-21T03:49:00;14.25;;;5.70;;
55455;SDS011;63021;52.836;6.376;2024-02-21T03:51:26;25.75;;;6.18;;
55455;SDS011;63021;52.836;6.376;2024-02-21T03:53:51;29.33;;;7.45;;
55455;SDS011;63021;52.836;6.376;2024-02-21T03:56:17;20.38;;;6.40;;
55455;SDS011;63021;52.836;6.376;2024-02-21T03:58:42;24.60;;;6.07;;
55455;SDS011;63021;52.836;6.376;2024-02-21T04:01:08;26.90;;;7.15;;
55455;SDS011;63021;52.836;6.376;2024-02-21T04:03:33;33.67;;;6.78;;
55455;SDS011;63021;52.836;6.376;2024-02-21T04:05:59;26.98;;;7.60;;
55455;SDS011;63021;52.836;6.376;2024-02-21T04:08:25;33.25;;;7.72;;
55455;SDS011;63021;52.836;6.376;2024-02-21T04:10:51;31.52;;;7.43;;
55455;SDS011;63021;52.836;6.376;2024-02-21T04:13:16;30.17;;;7.32;;
55455;SDS011;63021;52.836;6.376;2024-02-21T04:15:42;30.65;;;7.88;;
55455;SDS011;63021;52.836;6.376;2024-02-21T04:18:07;44.45;;;7.90;;
55455;SDS011;63021;52.836;6.376;2024-02-21T04:20:33;28.50;;;7.57;;
55455;SDS011;63021;52.836;6.376;2024-02-21T04:22:59;42.53;;;8.00;;
55455;SDS011;63021;52.836;6.376;2024-02-21T04:25:25;37.30;;;7.53;;
55455;SDS011;63021;52.836;6.376;2024-02-21T04:27:54;38.15;;;7.93;;
55455;SDS011;63021;52.836;6.376;2024-02-21T04:30:19;37.20;;;8.23;;
55455;SDS011;63021;52.836;6.376;2024-02-21T04:32:45;41.75;;;8.90;;
55455;SDS011;63021;52.836;6.376;2024-02-21T04:35:10;35.55;;;8.38;;
55455;SDS011;63021;52.836;6.376;2024-02-21T04:37:36;31.98;;;7.57;;
55455;SDS011;63021;52.836;6.376;2024-02-21T04:40:01;49.67;;;10.77;;
55455;SDS011;63021;52.836;6.376;2024-02-21T04:42:27;35.75;;;8.30;;
55455;SDS011;63021;52.836;6.376;2024-02-21T04:44:52;34.05;;;8.27;;
55455;SDS011;63021;52.836;6.376;2024-02-21T04:47:18;36.58;;;7.75;;
55455;SDS011;63021;52.836;6.376;2024-02-21T04:49:45;33.42;;;7.65;;
55455;SDS011;63021;52.836;6.376;2024-02-21T04:52:11;41.97;;;8.32;;
55455;SDS011;63021;52.836;6.376;2024-02-21T04:54:36;25.80;;;6.80;;
55455;SDS011;63021;52.836;6.376;2024-02-21T04:57:02;29.33;;;6.65;;
55455;SDS011;63021;52.836;6.376;2024-02-21T04:59:27;27.38;;;6.88;;
55455;SDS011;63021;52.836;6.376;2024-02-21T05:01:52;38.67;;;7.05;;
55455;SDS011;63021;52.836;6.376;2024-02-21T05:04:18;37.03;;;7.22;;
55455;SDS011;63021;52.836;6.376;2024-02-21T05:06:43;31.88;;;7.15;;
55455;SDS011;63021;52.836;6.376;2024-02-21T05:09:09;32.92;;;7.35;;
55455;SDS011;63021;52.836;6.376;2024-02-21T05:11:35;26.17;;;6.43;;
55455;SDS011;63021;52.836;6.376;2024-02-21T05:14:01;37.33;;;7.13;;
55455;SDS011;63021;52.836;6.376;2024-02-21T05:16:27;39.13;;;8.75;;
55455;SDS011;63021;52.836;6.376;2024-02-21T05:18:53;38.67;;;7.15;;
55455;SDS011;63021;52.836;6.376;2024-02-21T05:21:18;34.72;;;9.13;;
55455;SDS011;63021;52.836;6.376;2024-02-21T05:23:44;30.40;;;6.97;;
55455;SDS011;63021;52.836;6.376;2024-02-21T05:26:09;31.27;;;7.32;;
55455;SDS011;63021;52.836;6.376;2024-02-21T05:28:35;43.88;;;7.65;;
55455;SDS011;63021;52.836;6.376;2024-02-21T05:31:00;23.10;;;6.57;;
55455;SDS011;63021;52.836;6.376;2024-02-21T05:33:26;31.20;;;8.40;;
55455;SDS011;63021;52.836;6.376;2024-02-21T05:35:51;30.65;;;8.00;;
55455;SDS011;63021;52.836;6.376;2024-02-21T05:38:17;35.10;;;7.55;;
55455;SDS011;63021;52.836;6.376;2024-02-21T05:40:44;29.80;;;8.07;;
55455;SDS011;63021;52.836;6.376;2024-02-21T05:43:10;35.83;;;8.65;;
55455;SDS011;63021;52.836;6.376;2024-02-21T05:45:35;30.15;;;7.63;;
55455;SDS011;63021;52.836;6.376;2024-02-21T05:48:01;35.33;;;7.45;;
55455;SDS011;63021;52.836;6.376;2024-02-21T05:50:27;35.70;;;7.93;;
55455;SDS011;63021;52.836;6.376;2024-02-21T05:52:56;36.53;;;7.93;;
55455;SDS011;63021;52.836;6.376;2024-02-21T05:55:22;28.90;;;7.43;;
55455;SDS011;63021;52.836;6.376;2024-02-21T05:57:48;25.00;;;6.47;;
55455;SDS011;63021;52.836;6.376;2024-02-21T06:00:14;43.47;;;8.13;;
55455;SDS011;63021;52.836;6.376;2024-02-21T06:02:40;30.58;;;6.25;;
55455;SDS011;63021;52.836;6.376;2024-02-21T06:05:06;31.90;;;8.40;;
55455;SDS011;63021;52.836;6.376;2024-02-21T06:07:38;31.10;;;7.72;;
55455;SDS011;63021;52.836;6.376;2024-02-21T06:10:03;38.17;;;7.25;;
55455;SDS011;63021;52.836;6.376;2024-02-21T06:12:29;31.38;;;7.55;;
55455;SDS011;63021;52.836;6.376;2024-02-21T06:14:55;19.88;;;6.10;;
55455;SDS011;63021;52.836;6.376;2024-02-21T06:17:20;35.30;;;7.68;;
55455;SDS011;63021;52.836;6.376;2024-02-21T06:19:45;30.10;;;6.70;;
55455;SDS011;63021;52.836;6.376;2024-02-21T06:22:11;28.10;;;7.35;;
55455;SDS011;63021;52.836;6.376;2024-02-21T06:24:37;31.70;;;7.72;;
55455;SDS011;63021;52.836;6.376;2024-02-21T06:27:06;21.52;;;7.70;;
55455;SDS011;63021;52.836;6.376;2024-02-21T06:29:32;23.67;;;9.10;;
55455;SDS011;63021;52.836;6.376;2024-02-21T06:31:58;22.80;;;7.80;;
55455;SDS011;63021;52.836;6.376;2024-02-21T06:34:24;27.38;;;8.55;;
55455;SDS011;63021;52.836;6.376;2024-02-21T06:36:50;31.67;;;9.88;;
55455;SDS011;63021;52.836;6.376;2024-02-21T06:39:15;24.63;;;8.15;;
55455;SDS011;63021;52.836;6.376;2024-02-21T06:41:41;31.95;;;8.77;;
55455;SDS011;63021;52.836;6.376;2024-02-21T06:44:07;23.10;;;8.90;;
55455;SDS011;63021;52.836;6.376;2024-02-21T06:46:32;29.33;;;8.77;;
55455;SDS011;63021;52.836;6.376;2024-02-21T06:48:58;24.60;;;8.23;;
55455;SDS011;63021;52.836;6.376;2024-02-21T06:51:25;31.80;;;8.55;;
55455;SDS011;63021;52.836;6.376;2024-02-21T06:53:51;27.38;;;9.73;;
55455;SDS011;63021;52.836;6.376;2024-02-21T06:56:16;21.80;;;7.45;;
55455;SDS011;63021;52.836;6.376;2024-02-21T06:58:42;33.47;;;9.45;;
55455;SDS011;63021;52.836;6.376;2024-02-21T07:01:07;36.22;;;9.15;;
55455;SDS011;63021;52.836;6.376;2024-02-21T07:03:33;36.55;;;8.73;;
55455;SDS011;63021;52.836;6.376;2024-02-21T07:05:59;39.47;;;10.25;;
55455;SDS011;63021;52.836;6.376;2024-02-21T07:08:24;33.88;;;8.85;;
55455;SDS011;63021;52.836;6.376;2024-02-21T07:10:49;26.00;;;8.88;;
55455;SDS011;63021;52.836;6.376;2024-02-21T07:13:15;27.65;;;10.52;;
55455;SDS011;63021;52.836;6.376;2024-02-21T07:15:41;30.27;;;12.48;;
55455;SDS011;63021;52.836;6.376;2024-02-21T07:18:06;29.80;;;12.00;;
55455;SDS011;63021;52.836;6.376;2024-02-21T07:20:32;35.00;;;12.43;;
55455;SDS011;63021;52.836;6.376;2024-02-21T07:23:06;35.33;;;13.73;;
55455;SDS011;63021;52.836;6.376;2024-02-21T07:25:32;28.65;;;13.57;;
55455;SDS011;63021;52.836;6.376;2024-02-21T07:27:57;38.78;;;14.60;;
55455;SDS011;63021;52.836;6.376;2024-02-21T07:30:22;37.40;;;15.10;;
55455;SDS011;63021;52.836;6.376;2024-02-21T07:32:51;26.83;;;14.38;;
55455;SDS011;63021;52.836;6.376;2024-02-21T07:35:20;24.73;;;13.85;;
55455;SDS011;63021;52.836;6.376;2024-02-21T07:37:45;28.25;;;14.63;;
55455;SDS011;63021;52.836;6.376;2024-02-21T07:40:14;25.58;;;14.82;;
55455;SDS011;63021;52.836;6.376;2024-02-21T07:42:41;33.35;;;15.88;;
55455;SDS011;63021;52.836;6.376;2024-02-21T07:45:09;31.15;;;14.57;;
55455;SDS011;63021;52.836;6.376;2024-02-21T07:47:35;28.40;;;14.57;;
55455;SDS011;63021;52.836;6.376;2024-02-21T07:50:01;33.03;;;16.23;;
55455;SDS011;63021;52.836;6.376;2024-02-21T07:52:30;31.23;;;15.40;;
55455;SDS011;63021;52.836;6.376;2024-02-21T07:54:55;34.60;;;15.23;;
55455;SDS011;63021;52.836;6.376;2024-02-21T07:57:21;26.42;;;15.15;;
55455;SDS011;63021;52.836;6.376;2024-02-21T07:59:50;27.17;;;14.35;;
55455;SDS011;63021;52.836;6.376;2024-02-21T08:02:22;28.38;;;16.17;;
55455;SDS011;63021;52.836;6.376;2024-02-21T08:04:48;26.15;;;14.52;;
55455;SDS011;63021;52.836;6.376;2024-02-21T08:07:13;27.80;;;14.50;;
55455;SDS011;63021;52.836;6.376;2024-02-21T08:09:39;34.10;;;14.75;;
55455;SDS011;63021;52.836;6.376;2024-02-21T08:12:05;29.85;;;15.32;;
55455;SDS011;63021;52.836;6.376;2024-02-21T08:14:31;21.88;;;12.32;;
55455;SDS011;63021;52.836;6.376;2024-02-21T08:16:56;25.45;;;14.10;;
55455;SDS011;63021;52.836;6.376;2024-02-21T08:19:21;29.48;;;15.23;;
55455;SDS011;63021;52.836;6.376;2024-02-21T08:21:50;22.20;;;13.20;;
55455;SDS011;63021;52.836;6.376;2024-02-21T08:24:16;27.30;;;16.35;;
55455;SDS011;63021;52.836;6.376;2024-02-21T08:26:41;27.88;;;14.73;;
55455;SDS011;63021;52.836;6.376;2024-02-21T08:29:09;27.73;;;15.73;;
55455;SDS011;63021;52.836;6.376;2024-02-21T08:31:35;32.72;;;15.27;;
55455;SDS011;63021;52.836;6.376;2024-02-21T08:34:01;28.17;;;15.50;;
55455;SDS011;63021;52.836;6.376;2024-02-21T08:38:55;31.92;;;16.33;;
55455;SDS011;63021;52.836;6.376;2024-02-21T08:41:21;22.08;;;14.30;;
55455;SDS011;63021;52.836;6.376;2024-02-21T08:43:49;26.45;;;15.77;;
55455;SDS011;63021;52.836;6.376;2024-02-21T08:46:19;24.05;;;16.65;;
55455;SDS011;63021;52.836;6.376;2024-02-21T08:48:45;23.65;;;15.95;;
55455;SDS011;63021;52.836;6.376;2024-02-21T08:51:11;31.67;;;17.63;;
55455;SDS011;63021;52.836;6.376;2024-02-21T08:53:37;31.80;;;18.58;;
55455;SDS011;63021;52.836;6.376;2024-02-21T08:56:03;32.80;;;18.33;;
55455;SDS011;63021;52.836;6.376;2024-02-21T08:58:29;26.58;;;17.52;;
55455;SDS011;63021;52.836;6.376;2024-02-21T09:00:54;29.60;;;17.10;;
55455;SDS011;63021;52.836;6.376;2024-02-21T09:03:19;28.55;;;16.83;;
55455;SDS011;63021;52.836;6.376;2024-02-21T09:05:45;28.00;;;16.98;;
55455;SDS011;63021;52.836;6.376;2024-02-21T09:08:11;26.63;;;17.48;;
55455;SDS011;63021;52.836;6.376;2024-02-21T09:10:38;29.85;;;16.70;;
55455;SDS011;63021;52.836;6.376;2024-02-21T09:13:04;37.25;;;18.98;;
55455;SDS011;63021;52.836;6.376;2024-02-21T09:15:30;31.08;;;18.20;;
55455;SDS011;63021;52.836;6.376;2024-02-21T09:17:55;35.47;;;19.10;;
55455;SDS011;63021;52.836;6.376;2024-02-21T09:20:21;27.50;;;17.98;;
55455;SDS011;63021;52.836;6.376;2024-02-21T09:22:46;35.90;;;20.27;;
55455;SDS011;63021;52.836;6.376;2024-02-21T09:25:12;35.78;;;19.70;;
55455;SDS011;63021;52.836;6.376;2024-02-21T09:27:38;33.45;;;21.13;;
55455;SDS011;63021;52.836;6.376;2024-02-21T09:30:04;34.00;;;20.35;;
55455;SDS011;63021;52.836;6.376;2024-02-21T09:32:32;32.83;;;19.15;;
55455;SDS011;63021;52.836;6.376;2024-02-21T09:34:58;31.08;;;20.15;;
55455;SDS011;63021;52.836;6.376;2024-02-21T09:37:23;37.65;;;20.50;;
55455;SDS011;63021;52.836;6.376;2024-02-21T09:39:49;33.33;;;19.50;;
55455;SDS011;63021;52.836;6.376;2024-02-21T09:42:16;28.10;;;20.10;;
55455;SDS011;63021;52.836;6.376;2024-02-21T09:44:45;36.70;;;21.67;;
55455;SDS011;63021;52.836;6.376;2024-02-21T09:49:49;32.70;;;20.45;;
55455;SDS011;63021;52.836;6.376;2024-02-21T09:52:17;27.73;;;19.90;;
55455;SDS011;63021;52.836;6.376;2024-02-21T09:54:45;34.05;;;20.23;;
55455;SDS011;63021;52.836;6.376;2024-02-21T09:57:13;35.88;;;19.80;;
55455;SDS011;63021;52.836;6.376;2024-02-21T09:59:40;33.92;;;19.48;;
55455;SDS011;63021;52.836;6.376;2024-02-21T10:02:08;33.03;;;20.55;;
55455;SDS011;63021;52.836;6.376;2024-02-21T10:04:34;34.17;;;18.67;;
55455;SDS011;63021;52.836;6.376;2024-02-21T10:06:59;28.05;;;18.45;;
55455;SDS011;63021;52.836;6.376;2024-02-21T10:09:28;33.92;;;19.67;;
55455;SDS011;63021;52.836;6.376;2024-02-21T10:11:54;27.70;;;17.63;;
55455;SDS011;63021;52.836;6.376;2024-02-21T10:14:49;29.15;;;17.58;;
55455;SDS011;63021;52.836;6.376;2024-02-21T10:17:25;28.92;;;18.13;;
55455;SDS011;63021;52.836;6.376;2024-02-21T10:19:50;29.65;;;19.00;;
55455;SDS011;63021;52.836;6.376;2024-02-21T10:22:17;35.20;;;16.88;;
55455;SDS011;63021;52.836;6.376;2024-02-21T10:24:42;26.80;;;16.20;;
55455;SDS011;63021;52.836;6.376;2024-02-21T10:27:08;25.27;;;15.55;;
55455;SDS011;63021;52.836;6.376;2024-02-21T10:29:36;26.65;;;15.45;;
55455;SDS011;63021;52.836;6.376;2024-02-21T10:32:11;25.38;;;14.63;;
55455;SDS011;63021;52.836;6.376;2024-02-21T10:34:39;27.25;;;16.90;;
55455;SDS011;63021;52.836;6.376;2024-02-21T10:37:07;24.48;;;14.45;;
55455;SDS011;63021;52.836;6.376;2024-02-21T10:39:34;22.90;;;14.15;;
55455;SDS011;63021;52.836;6.376;2024-02-21T10:42:06;22.08;;;14.63;;
55455;SDS011;63021;52.836;6.376;2024-02-21T10:44:34;27.88;;;14.77;;
55455;SDS011;63021;52.836;6.376;2024-02-21T10:47:07;25.48;;;13.25;;
55455;SDS011;63021;52.836;6.376;2024-02-21T10:49:36;18.05;;;12.35;;
55455;SDS011;63021;52.836;6.376;2024-02-21T10:52:13;24.00;;;13.52;;
55455;SDS011;63021;52.836;6.376;2024-02-21T10:54:44;21.60;;;12.93;;
55455;SDS011;63021;52.836;6.376;2024-02-21T10:57:13;21.00;;;12.57;;
55455;SDS011;63021;52.836;6.376;2024-02-21T10:59:39;20.80;;;12.77;;
55455;SDS011;63021;52.836;6.376;2024-02-21T11:02:05;27.67;;;13.10;;
55455;SDS011;63021;52.836;6.376;2024-02-21T11:04:31;21.42;;;11.60;;
55455;SDS011;63021;52.836;6.376;2024-02-21T11:07:01;21.98;;;12.82;;
55455;SDS011;63021;52.836;6.376;2024-02-21T11:09:29;20.02;;;12.13;;
55455;SDS011;63021;52.836;6.376;2024-02-21T11:11:56;21.45;;;11.70;;
55455;SDS011;63021;52.836;6.376;2024-02-21T11:14:30;19.05;;;11.75;;
55455;SDS011;63021;52.836;6.376;2024-02-21T11:17:14;18.45;;;11.00;;
55455;SDS011;63021;52.836;6.376;2024-02-21T11:19:43;22.67;;;11.40;;
55455;SDS011;63021;52.836;6.376;2024-02-21T11:22:16;19.77;;;10.90;;
55455;SDS011;63021;52.836;6.376;2024-02-21T11:24:42;20.88;;;10.88;;
55455;SDS011;63021;52.836;6.376;2024-02-21T11:29:46;21.05;;;11.02;;
55455;SDS011;63021;52.836;6.376;2024-02-21T11:32:16;18.33;;;11.13;;
55455;SDS011;63021;52.836;6.376;2024-02-21T11:34:55;16.08;;;10.15;;
55455;SDS011;63021;52.836;6.376;2024-02-21T11:37:29;18.40;;;9.73;;
55455;SDS011;63021;52.836;6.376;2024-02-21T11:40:01;14.95;;;9.13;;
55455;SDS011;63021;52.836;6.376;2024-02-21T11:42:32;17.38;;;9.75;;
55455;SDS011;63021;52.836;6.376;2024-02-21T11:44:57;17.15;;;9.85;;
55455;SDS011;63021;52.836;6.376;2024-02-21T11:47:24;16.23;;;10.00;;
55455;SDS011;63021;52.836;6.376;2024-02-21T11:49:50;17.17;;;9.88;;
55455;SDS011;63021;52.836;6.376;2024-02-21T11:52:19;15.25;;;9.35;;
55455;SDS011;63021;52.836;6.376;2024-02-21T11:54:47;16.00;;;10.27;;
55455;SDS011;63021;52.836;6.376;2024-02-21T11:57:13;16.75;;;9.15;;
55455;SDS011;63021;52.836;6.376;2024-02-21T11:59:40;14.63;;;8.27;;
55455;SDS011;63021;52.836;6.376;2024-02-21T12:02:06;13.57;;;9.07;;
55455;SDS011;63021;52.836;6.376;2024-02-21T12:04:31;13.90;;;9.43;;
55455;SDS011;63021;52.836;6.376;2024-02-21T12:06:57;15.75;;;10.23;;
55455;SDS011;63021;52.836;6.376;2024-02-21T12:09:24;17.50;;;8.50;;
55455;SDS011;63021;52.836;6.376;2024-02-21T12:11:57;9.88;;;7.95;;
55455;SDS011;63021;52.836;6.376;2024-02-21T12:14:30;12.65;;;8.18;;
55455;SDS011;63021;52.836;6.376;2024-02-21T12:16:56;12.60;;;7.95;;
55455;SDS011;63021;52.836;6.376;2024-02-21T12:19:22;11.57;;;7.00;;
55455;SDS011;63021;52.836;6.376;2024-02-21T12:21:48;16.90;;;9.10;;
55455;SDS011;63021;52.836;6.376;2024-02-21T12:24:26;14.82;;;8.57;;
55455;SDS011;63021;52.836;6.376;2024-02-21T12:26:53;17.77;;;9.32;;
55455;SDS011;63021;52.836;6.376;2024-02-21T12:29:20;16.55;;;8.52;;
55455;SDS011;63021;52.836;6.376;2024-02-21T12:31:46;11.40;;;7.68;;
55455;SDS011;63021;52.836;6.376;2024-02-21T12:34:12;17.33;;;8.82;;
55455;SDS011;63021;52.836;6.376;2024-02-21T12:36:42;12.77;;;7.53;;
55455;SDS011;63021;52.836;6.376;2024-02-21T12:39:08;14.38;;;8.35;;
55455;SDS011;63021;52.836;6.376;2024-02-21T12:41:34;12.90;;;7.63;;
55455;SDS011;63021;52.836;6.376;2024-02-21T12:44:03;10.95;;;7.30;;
55455;SDS011;63021;52.836;6.376;2024-02-21T12:46:29;8.90;;;6.63;;
55455;SDS011;63021;52.836;6.376;2024-02-21T12:48:55;9.88;;;6.93;;
55455;SDS011;63021;52.836;6.376;2024-02-21T12:51:21;14.45;;;6.80;;
55455;SDS011;63021;52.836;6.376;2024-02-21T12:53:47;10.20;;;7.15;;
55455;SDS011;63021;52.836;6.376;2024-02-21T12:56:14;12.35;;;7.47;;
55455;SDS011;63021;52.836;6.376;2024-02-21T12:58:40;10.93;;;6.97;;
55455;SDS011;63021;52.836;6.376;2024-02-21T13:01:06;11.43;;;7.07;;
55455;SDS011;63021;52.836;6.376;2024-02-21T13:03:31;9.10;;;6.55;;
55455;SDS011;63021;52.836;6.376;2024-02-21T13:05:56;7.30;;;5.70;;
55455;SDS011;63021;52.836;6.376;2024-02-21T13:08:24;11.43;;;8.15;;
55455;SDS011;63021;52.836;6.376;2024-02-21T13:10:49;9.10;;;5.90;;
55455;SDS011;63021;52.836;6.376;2024-02-21T13:13:15;10.50;;;6.18;;
55455;SDS011;63021;52.836;6.376;2024-02-21T13:15:40;11.43;;;6.20;;
55455;SDS011;63021;52.836;6.376;2024-02-21T13:18:08;10.55;;;6.25;;
55455;SDS011;63021;52.836;6.376;2024-02-21T13:20:33;7.07;;;5.53;;
55455;SDS011;63021;52.836;6.376;2024-02-21T13:22:59;7.20;;;6.35;;
55455;SDS011;63021;52.836;6.376;2024-02-21T13:25:24;6.95;;;5.50;;
55455;SDS011;63021;52.836;6.376;2024-02-21T13:27:50;8.48;;;6.10;;
55455;SDS011;63021;52.836;6.376;2024-02-21T13:30:15;11.52;;;6.80;;
55455;SDS011;63021;52.836;6.376;2024-02-21T13:32:41;6.88;;;5.85;;
55455;SDS011;63021;52.836;6.376;2024-02-21T13:35:07;8.57;;;7.03;;
55455;SDS011;63021;52.836;6.376;2024-02-21T13:37:34;7.88;;;6.65;;
55455;SDS011;63021;52.836;6.376;2024-02-21T13:39:59;7.70;;;6.28;;
55455;SDS011;63021;52.836;6.376;2024-02-21T13:42:25;7.25;;;6.25;;
55455;SDS011;63021;52.836;6.376;2024-02-21T13:44:53;8.98;;;6.05;;
55455;SDS011;63021;52.836;6.376;2024-02-21T13:47:18;10.88;;;6.22;;
55455;SDS011;63021;52.836;6.376;2024-02-21T13:49:46;10.45;;;6.85;;
55455;SDS011;63021;52.836;6.376;2024-02-21T13:52:12;8.05;;;6.20;;
55455;SDS011;63021;52.836;6.376;2024-02-21T13:54:38;8.23;;;6.60;;
55455;SDS011;63021;52.836;6.376;2024-02-21T13:57:06;9.35;;;5.72;;
55455;SDS011;63021;52.836;6.376;2024-02-21T13:59:31;12.02;;;7.10;;
55455;SDS011;63021;52.836;6.376;2024-02-21T14:01:58;9.75;;;7.20;;
55455;SDS011;63021;52.836;6.376;2024-02-21T14:04:24;11.50;;;7.13;;
55455;SDS011;63021;52.836;6.376;2024-02-21T14:06:50;12.23;;;7.45;;
55455;SDS011;63021;52.836;6.376;2024-02-21T14:09:15;9.93;;;6.60;;
55455;SDS011;63021;52.836;6.376;2024-02-21T14:11:40;9.93;;;6.90;;
55455;SDS011;63021;52.836;6.376;2024-02-21T14:14:07;11.45;;;6.50;;
55455;SDS011;63021;52.836;6.376;2024-02-21T14:16:33;10.95;;;6.88;;
55455;SDS011;63021;52.836;6.376;2024-02-21T14:18:58;10.48;;;7.13;;
55455;SDS011;63021;52.836;6.376;2024-02-21T14:21:24;10.57;;;7.25;;
55455;SDS011;63021;52.836;6.376;2024-02-21T14:23:49;12.68;;;6.80;;
55455;SDS011;63021;52.836;6.376;2024-02-21T14:26:15;9.35;;;6.25;;
55455;SDS011;63021;52.836;6.376;2024-02-21T14:31:34;9.13;;;6.80;;
55455;SDS011;63021;52.836;6.376;2024-02-21T14:33:59;12.90;;;7.43;;
55455;SDS011;63021;52.836;6.376;2024-02-21T14:36:26;11.45;;;7.18;;
55455;SDS011;63021;52.836;6.376;2024-02-21T14:38:51;17.67;;;8.07;;